sensor_id;sensor_type;location;lat;lon;timestamp;P1;durP1;ratioP1;P2;durP2;ratioP2
4601;SDS011;2313;48.552;9.370;2023-02-28T00:01:26;13.15;;;5.68;;
4601;SDS011;2313;48.552;9.370;2023-02-28T00:03:52;11.60;;;4.63;;
4601;SDS011;2313;48.552;9.370;2023-02-28T00:06:17;13.00;;;4.73;;
4601;SDS011;2313;48.552;9.370;2023-02-28T00:08:43;11.17;;;4.83;;
4601;SDS011;2313;48.552;9.370;2023-02-28T00:11:10;23.00;;;6.97;;
4601;SDS011;2313;48.552;9.370;2023-02-28T00:13:38;10.27;;;4.63;;
4601;SDS011;2313;48.552;9.370;2023-02-28T00:16:08;7.97;;;3.47;;
4601;SDS011;2313;48.552;9.370;2023-02-28T00:18:36;6.72;;;3.78;;
4601;SDS011;2313;48.552;9.370;2023-02-28T00:21:02;5.07;;;3.33;;
4601;SDS011;2313;48.552;9.370;2023-02-28T00:23:28;2.65;;;2.45;;
4601;SDS011;2313;48.552;9.370;2023-02-28T00:25:54;4.40;;;2.30;;
4601;SDS011;2313;48.552;9.370;2023-02-28T00:28:20;2.87;;;2.27;;
4601;SDS011;2313;48.552;9.370;2023-02-28T00:30:46;4.40;;;3.10;;
4601;SDS011;2313;48.552;9.370;2023-02-28T00:33:11;3.13;;;2.30;;
4601;SDS011;2313;48.552;9.370;2023-02-28T00:35:37;2.33;;;2.10;;
4601;SDS011;2313;48.552;9.370;2023-02-28T00:38:03;2.50;;;2.23;;
4601;SDS011;2313;48.552;9.370;2023-02-28T00:40:29;4.20;;;2.40;;
4601;SDS011;2313;48.552;9.370;2023-02-28T00:42:55;3.85;;;2.28;;
4601;SDS011;2313;48.552;9.370;2023-02-28T00:45:20;3.27;;;2.80;;
4601;SDS011;2313;48.552;9.370;2023-02-28T00:47:46;4.50;;;2.90;;
4601;SDS011;2313;48.552;9.370;2023-02-28T00:50:14;4.05;;;2.20;;
4601;SDS011;2313;48.552;9.370;2023-02-28T00:52:43;2.70;;;2.50;;
4601;SDS011;2313;48.552;9.370;2023-02-28T00:55:09;3.37;;;2.80;;
4601;SDS011;2313;48.552;9.370;2023-02-28T00:57:35;2.40;;;2.20;;
4601;SDS011;2313;48.552;9.370;2023-02-28T01:00:00;4.43;;;2.43;;
4601;SDS011;2313;48.552;9.370;2023-02-28T01:02:26;5.40;;;2.97;;
4601;SDS011;2313;48.552;9.370;2023-02-28T01:04:52;2.63;;;2.23;;
4601;SDS011;2313;48.552;9.370;2023-02-28T01:07:17;3.57;;;3.07;;
4601;SDS011;2313;48.552;9.370;2023-02-28T01:09:43;3.37;;;2.80;;
4601;SDS011;2313;48.552;9.370;2023-02-28T01:12:11;3.08;;;2.75;;
4601;SDS011;2313;48.552;9.370;2023-02-28T01:14:37;3.47;;;2.67;;
4601;SDS011;2313;48.552;9.370;2023-02-28T01:17:02;3.53;;;2.53;;
4601;SDS011;2313;48.552;9.370;2023-02-28T01:19:28;4.60;;;3.50;;
4601;SDS011;2313;48.552;9.370;2023-02-28T01:21:53;5.27;;;3.13;;
4601;SDS011;2313;48.552;9.370;2023-02-28T01:24:19;5.77;;;2.60;;
4601;SDS011;2313;48.552;9.370;2023-02-28T01:26:45;4.43;;;2.40;;
4601;SDS011;2313;48.552;9.370;2023-02-28T01:29:10;3.33;;;2.60;;
4601;SDS011;2313;48.552;9.370;2023-02-28T01:31:36;5.23;;;2.50;;
4601;SDS011;2313;48.552;9.370;2023-02-28T01:34:02;3.73;;;2.73;;
4601;SDS011;2313;48.552;9.370;2023-02-28T01:36:28;3.80;;;2.60;;
4601;SDS011;2313;48.552;9.370;2023-02-28T01:38:53;5.13;;;2.50;;
4601;SDS011;2313;48.552;9.370;2023-02-28T01:41:21;5.13;;;2.93;;
4601;SDS011;2313;48.552;9.370;2023-02-28T01:46:14;3.00;;;2.37;;
4601;SDS011;2313;48.552;9.370;2023-02-28T01:48:48;2.72;;;2.47;;
4601;SDS011;2313;48.552;9.370;2023-02-28T01:51:20;3.47;;;2.97;;
4601;SDS011;2313;48.552;9.370;2023-02-28T01:53:53;10.68;;;2.63;;
4601;SDS011;2313;48.552;9.370;2023-02-28T01:56:24;3.50;;;2.85;;
4601;SDS011;2313;48.552;9.370;2023-02-28T01:58:54;4.05;;;2.50;;
4601;SDS011;2313;48.552;9.370;2023-02-28T02:01:21;2.55;;;2.35;;
4601;SDS011;2313;48.552;9.370;2023-02-28T02:03:52;4.18;;;2.60;;
4601;SDS011;2313;48.552;9.370;2023-02-28T02:06:21;4.13;;;2.95;;
4601;SDS011;2313;48.552;9.370;2023-02-28T02:08:49;4.07;;;3.00;;
4601;SDS011;2313;48.552;9.370;2023-02-28T02:11:17;4.90;;;2.90;;
4601;SDS011;2313;48.552;9.370;2023-02-28T02:16:37;3.88;;;2.20;;
4601;SDS011;2313;48.552;9.370;2023-02-28T02:35:35;3.88;;;2.97;;
4601;SDS011;2313;48.552;9.370;2023-02-28T02:38:26;6.47;;;2.42;;
4601;SDS011;2313;48.552;9.370;2023-02-28T02:43:50;5.40;;;3.20;;
4601;SDS011;2313;48.552;9.370;2023-02-28T02:46:23;2.75;;;2.15;;
4601;SDS011;2313;48.552;9.370;2023-02-28T02:48:54;3.97;;;2.90;;
4601;SDS011;2313;48.552;9.370;2023-02-28T02:51:23;3.40;;;3.05;;
4601;SDS011;2313;48.552;9.370;2023-02-28T02:54:13;2.80;;;2.60;;
4601;SDS011;2313;48.552;9.370;2023-02-28T02:56:41;3.10;;;2.90;;
4601;SDS011;2313;48.552;9.370;2023-02-28T02:59:10;2.88;;;2.25;;
4601;SDS011;2313;48.552;9.370;2023-02-28T03:01:38;3.60;;;2.70;;
4601;SDS011;2313;48.552;9.370;2023-02-28T03:04:10;2.88;;;2.67;;
4601;SDS011;2313;48.552;9.370;2023-02-28T03:06:41;4.53;;;3.35;;
4601;SDS011;2313;48.552;9.370;2023-02-28T03:09:06;5.07;;;2.90;;
4601;SDS011;2313;48.552;9.370;2023-02-28T03:11:32;4.67;;;2.73;;
4601;SDS011;2313;48.552;9.370;2023-02-28T03:17:10;5.82;;;3.15;;
4601;SDS011;2313;48.552;9.370;2023-02-28T03:28:08;5.15;;;3.13;;
4601;SDS011;2313;48.552;9.370;2023-02-28T03:33:12;4.70;;;3.40;;
4601;SDS011;2313;48.552;9.370;2023-02-28T03:35:43;4.63;;;3.80;;
4601;SDS011;2313;48.552;9.370;2023-02-28T03:38:18;4.10;;;3.42;;
4601;SDS011;2313;48.552;9.370;2023-02-28T03:41:09;3.03;;;2.78;;
4601;SDS011;2313;48.552;9.370;2023-02-28T03:43:45;3.90;;;3.13;;
4601;SDS011;2313;48.552;9.370;2023-02-28T03:46:24;3.72;;;3.40;;
4601;SDS011;2313;48.552;9.370;2023-02-28T03:48:55;5.43;;;3.30;;
4601;SDS011;2313;48.552;9.370;2023-02-28T03:51:27;4.63;;;3.13;;
4601;SDS011;2313;48.552;9.370;2023-02-28T03:53:57;4.15;;;3.53;;
4601;SDS011;2313;48.552;9.370;2023-02-28T03:56:44;3.22;;;3.03;;
4601;SDS011;2313;48.552;9.370;2023-02-28T04:01:50;3.60;;;3.20;;
4601;SDS011;2313;48.552;9.370;2023-02-28T04:04:16;4.10;;;3.00;;
4601;SDS011;2313;48.552;9.370;2023-02-28T04:06:43;3.33;;;3.03;;
4601;SDS011;2313;48.552;9.370;2023-02-28T04:09:10;7.72;;;4.70;;
4601;SDS011;2313;48.552;9.370;2023-02-28T04:11:38;3.50;;;3.20;;
4601;SDS011;2313;48.552;9.370;2023-02-28T04:14:10;8.60;;;3.42;;
4601;SDS011;2313;48.552;9.370;2023-02-28T04:16:37;4.30;;;3.15;;
4601;SDS011;2313;48.552;9.370;2023-02-28T04:19:07;5.75;;;2.80;;
4601;SDS011;2313;48.552;9.370;2023-02-28T04:21:35;5.00;;;3.10;;
4601;SDS011;2313;48.552;9.370;2023-02-28T04:24:07;4.20;;;3.83;;
4601;SDS011;2313;48.552;9.370;2023-02-28T04:26:44;6.15;;;3.53;;
4601;SDS011;2313;48.552;9.370;2023-02-28T04:29:12;4.28;;;3.50;;
4601;SDS011;2313;48.552;9.370;2023-02-28T04:31:39;5.50;;;3.45;;
4601;SDS011;2313;48.552;9.370;2023-02-28T04:34:05;9.60;;;5.70;;
4601;SDS011;2313;48.552;9.370;2023-02-28T04:36:31;4.22;;;3.40;;
4601;SDS011;2313;48.552;9.370;2023-02-28T04:38:57;4.40;;;4.00;;
4601;SDS011;2313;48.552;9.370;2023-02-28T04:41:22;3.77;;;3.10;;
4601;SDS011;2313;48.552;9.370;2023-02-28T04:43:48;5.10;;;3.60;;
4601;SDS011;2313;48.552;9.370;2023-02-28T04:46:15;4.68;;;2.95;;
4601;SDS011;2313;48.552;9.370;2023-02-28T04:48:42;5.75;;;3.97;;
4601;SDS011;2313;48.552;9.370;2023-02-28T04:51:10;6.07;;;4.22;;
4601;SDS011;2313;48.552;9.370;2023-02-28T04:53:37;4.13;;;3.25;;
4601;SDS011;2313;48.552;9.370;2023-02-28T04:56:04;4.32;;;3.80;;
4601;SDS011;2313;48.552;9.370;2023-02-28T04:58:31;4.80;;;4.30;;
4601;SDS011;2313;48.552;9.370;2023-02-28T05:03:30;5.75;;;4.38;;
4601;SDS011;2313;48.552;9.370;2023-02-28T05:05:55;9.23;;;4.40;;
4601;SDS011;2313;48.552;9.370;2023-02-28T05:08:21;6.93;;;4.27;;
4601;SDS011;2313;48.552;9.370;2023-02-28T05:10:47;8.17;;;4.20;;
4601;SDS011;2313;48.552;9.370;2023-02-28T05:13:12;5.35;;;4.05;;
4601;SDS011;2313;48.552;9.370;2023-02-28T05:15:38;3.90;;;3.40;;
4601;SDS011;2313;48.552;9.370;2023-02-28T05:18:04;5.30;;;3.70;;
4601;SDS011;2313;48.552;9.370;2023-02-28T05:20:29;4.00;;;3.60;;
4601;SDS011;2313;48.552;9.370;2023-02-28T05:22:56;7.23;;;5.03;;
4601;SDS011;2313;48.552;9.370;2023-02-28T05:25:23;9.02;;;5.32;;
4601;SDS011;2313;48.552;9.370;2023-02-28T05:27:49;6.10;;;4.53;;
4601;SDS011;2313;48.552;9.370;2023-02-28T05:30:14;8.30;;;4.63;;
4601;SDS011;2313;48.552;9.370;2023-02-28T05:32:40;4.77;;;4.27;;
4601;SDS011;2313;48.552;9.370;2023-02-28T05:35:10;5.07;;;4.13;;
4601;SDS011;2313;48.552;9.370;2023-02-28T05:37:37;8.48;;;4.22;;
4601;SDS011;2313;48.552;9.370;2023-02-28T05:40:04;6.45;;;4.10;;
4601;SDS011;2313;48.552;9.370;2023-02-28T05:42:36;6.68;;;4.55;;
4601;SDS011;2313;48.552;9.370;2023-02-28T05:45:06;4.95;;;4.10;;
4601;SDS011;2313;48.552;9.370;2023-02-28T05:47:32;6.78;;;4.78;;
4601;SDS011;2313;48.552;9.370;2023-02-28T05:49:58;5.63;;;5.10;;
4601;SDS011;2313;48.552;9.370;2023-02-28T05:52:23;8.40;;;5.50;;
4601;SDS011;2313;48.552;9.370;2023-02-28T05:54:49;8.30;;;5.40;;
4601;SDS011;2313;48.552;9.370;2023-02-28T05:57:15;9.73;;;5.80;;
4601;SDS011;2313;48.552;9.370;2023-02-28T05:59:40;7.57;;;5.10;;
4601;SDS011;2313;48.552;9.370;2023-02-28T06:02:09;9.10;;;5.80;;
4601;SDS011;2313;48.552;9.370;2023-02-28T06:04:37;7.25;;;5.50;;
4601;SDS011;2313;48.552;9.370;2023-02-28T06:07:02;7.40;;;5.37;;
4601;SDS011;2313;48.552;9.370;2023-02-28T06:09:28;8.33;;;5.03;;
4601;SDS011;2313;48.552;9.370;2023-02-28T06:11:54;7.30;;;4.43;;
4601;SDS011;2313;48.552;9.370;2023-02-28T06:14:22;9.93;;;6.05;;
4601;SDS011;2313;48.552;9.370;2023-02-28T06:16:47;5.20;;;4.70;;
4601;SDS011;2313;48.552;9.370;2023-02-28T06:19:13;6.83;;;4.47;;
4601;SDS011;2313;48.552;9.370;2023-02-28T06:21:40;9.25;;;5.45;;
4601;SDS011;2313;48.552;9.370;2023-02-28T06:24:05;12.70;;;6.17;;
4601;SDS011;2313;48.552;9.370;2023-02-28T06:26:31;12.80;;;5.60;;
4601;SDS011;2313;48.552;9.370;2023-02-28T06:28:57;8.50;;;6.20;;
4601;SDS011;2313;48.552;9.370;2023-02-28T06:31:23;7.93;;;4.97;;
4601;SDS011;2313;48.552;9.370;2023-02-28T06:33:50;6.20;;;5.60;;
4601;SDS011;2313;48.552;9.370;2023-02-28T06:36:16;9.03;;;5.33;;
4601;SDS011;2313;48.552;9.370;2023-02-28T06:38:42;7.97;;;5.30;;
4601;SDS011;2313;48.552;9.370;2023-02-28T06:41:08;8.15;;;5.32;;
4601;SDS011;2313;48.552;9.370;2023-02-28T06:43:35;14.27;;;5.97;;
4601;SDS011;2313;48.552;9.370;2023-02-28T06:46:04;10.38;;;5.50;;
4601;SDS011;2313;48.552;9.370;2023-02-28T06:48:31;8.30;;;6.50;;
4601;SDS011;2313;48.552;9.370;2023-02-28T06:51:07;10.10;;;5.80;;
4601;SDS011;2313;48.552;9.370;2023-02-28T06:53:38;10.27;;;6.50;;
4601;SDS011;2313;48.552;9.370;2023-02-28T06:56:08;8.63;;;6.23;;
4601;SDS011;2313;48.552;9.370;2023-02-28T06:58:38;8.85;;;6.55;;
4601;SDS011;2313;48.552;9.370;2023-02-28T07:01:05;8.77;;;5.80;;
4601;SDS011;2313;48.552;9.370;2023-02-28T07:03:31;8.93;;;6.90;;
4601;SDS011;2313;48.552;9.370;2023-02-28T07:05:57;8.13;;;6.50;;
4601;SDS011;2313;48.552;9.370;2023-02-28T07:08:24;7.40;;;5.88;;
4601;SDS011;2313;48.552;9.370;2023-02-28T07:10:53;8.50;;;6.80;;
4601;SDS011;2313;48.552;9.370;2023-02-28T07:13:20;13.93;;;7.80;;
4601;SDS011;2313;48.552;9.370;2023-02-28T07:15:52;9.98;;;5.85;;
4601;SDS011;2313;48.552;9.370;2023-02-28T07:18:19;8.30;;;6.28;;
4601;SDS011;2313;48.552;9.370;2023-02-28T07:20:44;11.40;;;6.30;;
4601;SDS011;2313;48.552;9.370;2023-02-28T07:23:10;7.97;;;5.90;;
4601;SDS011;2313;48.552;9.370;2023-02-28T07:25:36;6.70;;;5.70;;
4601;SDS011;2313;48.552;9.370;2023-02-28T07:28:01;14.13;;;6.03;;
4601;SDS011;2313;48.552;9.370;2023-02-28T07:30:27;9.23;;;6.60;;
4601;SDS011;2313;48.552;9.370;2023-02-28T07:32:52;9.63;;;6.13;;
4601;SDS011;2313;48.552;9.370;2023-02-28T07:35:20;9.68;;;6.63;;
4601;SDS011;2313;48.552;9.370;2023-02-28T07:37:46;13.47;;;7.43;;
4601;SDS011;2313;48.552;9.370;2023-02-28T07:40:12;10.87;;;7.60;;
4601;SDS011;2313;48.552;9.370;2023-02-28T07:42:38;9.63;;;6.27;;
4601;SDS011;2313;48.552;9.370;2023-02-28T07:45:05;8.95;;;6.88;;
4601;SDS011;2313;48.552;9.370;2023-02-28T07:47:31;18.20;;;7.20;;
4601;SDS011;2313;48.552;9.370;2023-02-28T07:49:57;11.93;;;7.73;;
4601;SDS011;2313;48.552;9.370;2023-02-28T07:52:24;9.07;;;6.65;;
4601;SDS011;2313;48.552;9.370;2023-02-28T07:54:50;7.90;;;6.20;;
4601;SDS011;2313;48.552;9.370;2023-02-28T07:57:16;10.48;;;6.78;;
4601;SDS011;2313;48.552;9.370;2023-02-28T07:59:42;10.27;;;7.00;;
4601;SDS011;2313;48.552;9.370;2023-02-28T08:02:17;8.13;;;6.50;;
4601;SDS011;2313;48.552;9.370;2023-02-28T08:04:43;8.75;;;6.47;;
4601;SDS011;2313;48.552;9.370;2023-02-28T08:07:09;7.60;;;6.43;;
4601;SDS011;2313;48.552;9.370;2023-02-28T08:09:38;9.68;;;6.82;;
4601;SDS011;2313;48.552;9.370;2023-02-28T08:12:04;7.82;;;6.25;;
4601;SDS011;2313;48.552;9.370;2023-02-28T08:14:31;6.38;;;5.25;;
4601;SDS011;2313;48.552;9.370;2023-02-28T08:16:56;9.83;;;7.67;;
4601;SDS011;2313;48.552;9.370;2023-02-28T08:19:22;12.50;;;7.43;;
4601;SDS011;2313;48.552;9.370;2023-02-28T08:21:47;10.17;;;7.70;;
4601;SDS011;2313;48.552;9.370;2023-02-28T08:24:13;8.30;;;6.90;;
4601;SDS011;2313;48.552;9.370;2023-02-28T08:26:39;9.73;;;7.20;;
4601;SDS011;2313;48.552;9.370;2023-02-28T08:29:04;8.27;;;6.87;;
4601;SDS011;2313;48.552;9.370;2023-02-28T08:31:30;13.53;;;8.50;;
4601;SDS011;2313;48.552;9.370;2023-02-28T08:33:55;10.10;;;7.60;;
4601;SDS011;2313;48.552;9.370;2023-02-28T08:36:23;9.52;;;7.35;;
4601;SDS011;2313;48.552;9.370;2023-02-28T08:38:50;10.15;;;7.40;;
4601;SDS011;2313;48.552;9.370;2023-02-28T08:41:15;9.73;;;7.40;;
4601;SDS011;2313;48.552;9.370;2023-02-28T08:43:41;6.83;;;6.13;;
4601;SDS011;2313;48.552;9.370;2023-02-28T08:46:07;9.57;;;6.82;;
4601;SDS011;2313;48.552;9.370;2023-02-28T08:48:36;13.20;;;6.60;;
4601;SDS011;2313;48.552;9.370;2023-02-28T08:51:07;10.02;;;7.25;;
4601;SDS011;2313;48.552;9.370;2023-02-28T08:53:38;12.30;;;7.28;;
4601;SDS011;2313;48.552;9.370;2023-02-28T08:58:31;13.43;;;7.40;;
4601;SDS011;2313;48.552;9.370;2023-02-28T09:00:56;9.90;;;7.77;;
4601;SDS011;2313;48.552;9.370;2023-02-28T09:03:22;11.67;;;7.70;;
4601;SDS011;2313;48.552;9.370;2023-02-28T09:05:55;13.60;;;8.25;;
4601;SDS011;2313;48.552;9.370;2023-02-28T09:08:22;10.85;;;7.40;;
4601;SDS011;2313;48.552;9.370;2023-02-28T09:10:48;7.90;;;6.60;;
4601;SDS011;2313;48.552;9.370;2023-02-28T09:13:14;11.17;;;7.33;;
4601;SDS011;2313;48.552;9.370;2023-02-28T09:15:40;9.80;;;7.30;;
4601;SDS011;2313;48.552;9.370;2023-02-28T09:18:05;10.03;;;7.20;;
4601;SDS011;2313;48.552;9.370;2023-02-28T09:20:31;10.43;;;7.63;;
4601;SDS011;2313;48.552;9.370;2023-02-28T09:22:57;10.47;;;7.37;;
4601;SDS011;2313;48.552;9.370;2023-02-28T09:25:22;12.07;;;7.83;;
4601;SDS011;2313;48.552;9.370;2023-02-28T09:27:48;12.07;;;7.53;;
4601;SDS011;2313;48.552;9.370;2023-02-28T09:30:13;10.23;;;7.90;;
4601;SDS011;2313;48.552;9.370;2023-02-28T09:32:39;9.30;;;6.40;;
4601;SDS011;2313;48.552;9.370;2023-02-28T09:35:05;12.50;;;8.23;;
4601;SDS011;2313;48.552;9.370;2023-02-28T09:37:31;13.85;;;8.13;;
4601;SDS011;2313;48.552;9.370;2023-02-28T09:39:57;9.63;;;7.67;;
4601;SDS011;2313;48.552;9.370;2023-02-28T09:42:29;10.40;;;7.03;;
4601;SDS011;2313;48.552;9.370;2023-02-28T09:44:58;13.93;;;8.57;;
4601;SDS011;2313;48.552;9.370;2023-02-28T09:47:27;10.38;;;8.18;;
4601;SDS011;2313;48.552;9.370;2023-02-28T09:49:58;10.65;;;7.57;;
4601;SDS011;2313;48.552;9.370;2023-02-28T09:52:37;9.90;;;6.97;;
4601;SDS011;2313;48.552;9.370;2023-02-28T09:55:20;10.98;;;7.45;;
4601;SDS011;2313;48.552;9.370;2023-02-28T09:57:53;12.15;;;7.68;;
4601;SDS011;2313;48.552;9.370;2023-02-28T10:00:24;12.63;;;7.30;;
4601;SDS011;2313;48.552;9.370;2023-02-28T10:03:00;8.82;;;7.38;;
4601;SDS011;2313;48.552;9.370;2023-02-28T10:08:54;13.20;;;7.80;;
4601;SDS011;2313;48.552;9.370;2023-02-28T10:11:21;11.70;;;7.32;;
4601;SDS011;2313;48.552;9.370;2023-02-28T10:16:31;11.82;;;7.70;;
4601;SDS011;2313;48.552;9.370;2023-02-28T10:19:05;13.25;;;8.40;;
4601;SDS011;2313;48.552;9.370;2023-02-28T10:21:41;14.23;;;7.93;;
4601;SDS011;2313;48.552;9.370;2023-02-28T10:27:18;12.07;;;7.20;;
4601;SDS011;2313;48.552;9.370;2023-02-28T10:29:57;10.52;;;7.60;;
4601;SDS011;2313;48.552;9.370;2023-02-28T10:32:26;9.27;;;7.18;;
4601;SDS011;2313;48.552;9.370;2023-02-28T10:37:40;9.60;;;7.10;;
4601;SDS011;2313;48.552;9.370;2023-02-28T10:42:55;13.52;;;8.25;;
4601;SDS011;2313;48.552;9.370;2023-02-28T10:45:26;9.15;;;7.68;;
4601;SDS011;2313;48.552;9.370;2023-02-28T10:48:04;10.05;;;6.95;;
4601;SDS011;2313;48.552;9.370;2023-02-28T10:50:43;9.57;;;7.82;;
4601;SDS011;2313;48.552;9.370;2023-02-28T11:01:25;11.20;;;7.80;;
4601;SDS011;2313;48.552;9.370;2023-02-28T11:04:03;10.77;;;8.25;;
4601;SDS011;2313;48.552;9.370;2023-02-28T11:06:41;13.75;;;10.40;;
4601;SDS011;2313;48.552;9.370;2023-02-28T11:09:16;11.60;;;9.53;;
4601;SDS011;2313;48.552;9.370;2023-02-28T11:12:04;11.45;;;8.50;;
4601;SDS011;2313;48.552;9.370;2023-02-28T11:17:32;12.80;;;8.70;;
4601;SDS011;2313;48.552;9.370;2023-02-28T11:20:05;13.07;;;8.73;;
4601;SDS011;2313;48.552;9.370;2023-02-28T11:22:33;9.45;;;8.00;;
4601;SDS011;2313;48.552;9.370;2023-02-28T11:25:06;14.73;;;7.93;;
4601;SDS011;2313;48.552;9.370;2023-02-28T11:27:48;21.10;;;9.03;;
4601;SDS011;2313;48.552;9.370;2023-02-28T11:32:56;13.00;;;8.70;;
4601;SDS011;2313;48.552;9.370;2023-02-28T11:35:33;11.80;;;7.80;;
4601;SDS011;2313;48.552;9.370;2023-02-28T11:38:05;11.00;;;8.73;;
4601;SDS011;2313;48.552;9.370;2023-02-28T11:49:07;10.00;;;8.37;;
4601;SDS011;2313;48.552;9.370;2023-02-28T11:51:53;10.20;;;8.00;;
4601;SDS011;2313;48.552;9.370;2023-02-28T12:03:26;11.00;;;8.27;;
4601;SDS011;2313;48.552;9.370;2023-02-28T12:17:55;11.10;;;8.83;;
4601;SDS011;2313;48.552;9.370;2023-02-28T12:20:25;12.13;;;9.07;;
4601;SDS011;2313;48.552;9.370;2023-02-28T12:28:59;11.40;;;8.40;;
4601;SDS011;2313;48.552;9.370;2023-02-28T12:34:22;11.17;;;8.70;;
4601;SDS011;2313;48.552;9.370;2023-02-28T12:36:53;9.60;;;8.07;;
4601;SDS011;2313;48.552;9.370;2023-02-28T12:39:26;13.93;;;9.30;;
4601;SDS011;2313;48.552;9.370;2023-02-28T12:41:56;10.40;;;7.80;;
4601;SDS011;2313;48.552;9.370;2023-02-28T12:47:00;10.90;;;8.23;;
4601;SDS011;2313;48.552;9.370;2023-02-28T12:49:31;11.40;;;8.70;;
4601;SDS011;2313;48.552;9.370;2023-02-28T12:52:07;11.53;;;8.73;;
4601;SDS011;2313;48.552;9.370;2023-02-28T12:57:18;17.20;;;8.10;;
4601;SDS011;2313;48.552;9.370;2023-02-28T12:59:56;9.50;;;8.40;;
4601;SDS011;2313;48.552;9.370;2023-02-28T13:05:32;10.00;;;8.10;;
4601;SDS011;2313;48.552;9.370;2023-02-28T13:10:44;14.80;;;8.20;;
4601;SDS011;2313;48.552;9.370;2023-02-28T13:13:13;9.57;;;8.10;;
4601;SDS011;2313;48.552;9.370;2023-02-28T13:18:38;9.00;;;7.60;;
4601;SDS011;2313;48.552;9.370;2023-02-28T13:21:29;10.90;;;8.07;;
4601;SDS011;2313;48.552;9.370;2023-02-28T13:24:04;16.87;;;8.53;;
4601;SDS011;2313;48.552;9.370;2023-02-28T13:34:39;12.13;;;7.90;;
4601;SDS011;2313;48.552;9.370;2023-02-28T13:42:56;9.03;;;7.33;;
4601;SDS011;2313;48.552;9.370;2023-02-28T13:47:53;12.77;;;7.93;;
4601;SDS011;2313;48.552;9.370;2023-02-28T13:52:57;10.23;;;7.60;;
4601;SDS011;2313;48.552;9.370;2023-02-28T14:01:15;12.10;;;7.93;;
4601;SDS011;2313;48.552;9.370;2023-02-28T14:08:53;29.60;;;9.63;;
4601;SDS011;2313;48.552;9.370;2023-02-28T14:11:43;16.37;;;8.57;;
4601;SDS011;2313;48.552;9.370;2023-02-28T14:14:53;11.77;;;8.33;;
4601;SDS011;2313;48.552;9.370;2023-02-28T14:17:04;10.30;;;8.20;;
4601;SDS011;2313;48.552;9.370;2023-02-28T14:19:37;13.90;;;9.73;;
4601;SDS011;2313;48.552;9.370;2023-02-28T14:27:32;13.93;;;8.30;;
4601;SDS011;2313;48.552;9.370;2023-02-28T14:35:40;10.53;;;7.90;;
4601;SDS011;2313;48.552;9.370;2023-02-28T14:38:13;10.33;;;7.80;;
4601;SDS011;2313;48.552;9.370;2023-02-28T14:40:43;13.33;;;7.60;;
4601;SDS011;2313;48.552;9.370;2023-02-28T14:43:21;11.77;;;7.73;;
4601;SDS011;2313;48.552;9.370;2023-02-28T14:45:52;14.70;;;8.20;;
4601;SDS011;2313;48.552;9.370;2023-02-28T14:48:24;8.87;;;7.50;;
4601;SDS011;2313;48.552;9.370;2023-02-28T14:50:51;10.53;;;8.30;;
4601;SDS011;2313;48.552;9.370;2023-02-28T14:53:20;12.60;;;8.73;;
4601;SDS011;2313;48.552;9.370;2023-02-28T14:55:49;14.10;;;8.87;;
4601;SDS011;2313;48.552;9.370;2023-02-28T15:00:52;10.57;;;8.07;;
4601;SDS011;2313;48.552;9.370;2023-02-28T15:03:33;12.63;;;8.17;;
4601;SDS011;2313;48.552;9.370;2023-02-28T15:06:01;12.10;;;9.00;;
4601;SDS011;2313;48.552;9.370;2023-02-28T15:08:31;14.67;;;8.17;;
4601;SDS011;2313;48.552;9.370;2023-02-28T15:11:01;12.33;;;8.73;;
4601;SDS011;2313;48.552;9.370;2023-02-28T15:13:38;11.20;;;8.27;;
4601;SDS011;2313;48.552;9.370;2023-02-28T15:16:10;11.80;;;8.23;;
4601;SDS011;2313;48.552;9.370;2023-02-28T15:21:20;10.70;;;8.30;;
4601;SDS011;2313;48.552;9.370;2023-02-28T15:23:52;10.40;;;7.67;;
4601;SDS011;2313;48.552;9.370;2023-02-28T15:26:24;12.07;;;8.00;;
4601;SDS011;2313;48.552;9.370;2023-02-28T15:28:58;12.73;;;7.43;;
4601;SDS011;2313;48.552;9.370;2023-02-28T15:31:27;11.83;;;8.37;;
4601;SDS011;2313;48.552;9.370;2023-02-28T15:33:56;14.23;;;8.97;;
4601;SDS011;2313;48.552;9.370;2023-02-28T15:36:28;11.70;;;8.57;;
4601;SDS011;2313;48.552;9.370;2023-02-28T15:38:56;14.13;;;8.40;;
4601;SDS011;2313;48.552;9.370;2023-02-28T15:41:29;11.87;;;8.03;;
4601;SDS011;2313;48.552;9.370;2023-02-28T15:47:30;9.90;;;7.70;;
4601;SDS011;2313;48.552;9.370;2023-02-28T15:49:36;10.50;;;7.70;;
4601;SDS011;2313;48.552;9.370;2023-02-28T15:52:28;11.10;;;8.07;;
4601;SDS011;2313;48.552;9.370;2023-02-28T15:55:17;18.50;;;8.73;;
4601;SDS011;2313;48.552;9.370;2023-02-28T15:57:56;13.10;;;8.17;;
4601;SDS011;2313;48.552;9.370;2023-02-28T16:00:27;9.57;;;7.43;;
4601;SDS011;2313;48.552;9.370;2023-02-28T16:02:53;13.13;;;8.27;;
4601;SDS011;2313;48.552;9.370;2023-02-28T16:05:21;11.10;;;7.63;;
4601;SDS011;2313;48.552;9.370;2023-02-28T16:07:53;9.77;;;7.80;;
4601;SDS011;2313;48.552;9.370;2023-02-28T16:10:20;11.77;;;7.17;;
4601;SDS011;2313;48.552;9.370;2023-02-28T16:12:46;6.80;;;6.10;;
4601;SDS011;2313;48.552;9.370;2023-02-28T16:17:43;10.37;;;7.40;;
4601;SDS011;2313;48.552;9.370;2023-02-28T16:20:12;9.37;;;7.70;;
4601;SDS011;2313;48.552;9.370;2023-02-28T16:22:39;14.23;;;8.00;;
4601;SDS011;2313;48.552;9.370;2023-02-28T16:25:04;11.47;;;8.80;;
4601;SDS011;2313;48.552;9.370;2023-02-28T16:27:34;12.07;;;8.13;;
4601;SDS011;2313;48.552;9.370;2023-02-28T16:30:03;10.90;;;8.80;;
4601;SDS011;2313;48.552;9.370;2023-02-28T16:32:30;11.10;;;8.47;;
4601;SDS011;2313;48.552;9.370;2023-02-28T16:34:59;10.13;;;7.70;;
4601;SDS011;2313;48.552;9.370;2023-02-28T16:37:26;11.60;;;8.07;;
4601;SDS011;2313;48.552;9.370;2023-02-28T16:39:52;8.52;;;6.72;;
4601;SDS011;2313;48.552;9.370;2023-02-28T16:42:25;10.17;;;7.30;;
4601;SDS011;2313;48.552;9.370;2023-02-28T16:44:53;13.03;;;8.60;;
4601;SDS011;2313;48.552;9.370;2023-02-28T16:47:19;17.60;;;9.70;;
4601;SDS011;2313;48.552;9.370;2023-02-28T16:49:45;16.73;;;8.47;;
4601;SDS011;2313;48.552;9.370;2023-02-28T16:52:12;18.83;;;9.73;;
4601;SDS011;2313;48.552;9.370;2023-02-28T16:54:38;14.20;;;9.70;;
4601;SDS011;2313;48.552;9.370;2023-02-28T16:57:05;16.83;;;8.32;;
4601;SDS011;2313;48.552;9.370;2023-02-28T16:59:40;17.83;;;10.80;;
4601;SDS011;2313;48.552;9.370;2023-02-28T17:02:10;12.20;;;8.40;;
4601;SDS011;2313;48.552;9.370;2023-02-28T17:04:37;14.88;;;8.93;;
4601;SDS011;2313;48.552;9.370;2023-02-28T17:07:03;18.20;;;10.40;;
4601;SDS011;2313;48.552;9.370;2023-02-28T17:09:28;13.53;;;9.90;;
4601;SDS011;2313;48.552;9.370;2023-02-28T17:11:54;12.73;;;10.23;;
4601;SDS011;2313;48.552;9.370;2023-02-28T17:14:21;13.37;;;9.70;;
4601;SDS011;2313;48.552;9.370;2023-02-28T17:16:48;16.80;;;10.50;;
4601;SDS011;2313;48.552;9.370;2023-02-28T17:19:14;16.17;;;11.23;;
4601;SDS011;2313;48.552;9.370;2023-02-28T17:21:42;23.60;;;12.00;;
4601;SDS011;2313;48.552;9.370;2023-02-28T17:24:08;23.95;;;13.90;;
4601;SDS011;2313;48.552;9.370;2023-02-28T17:26:37;22.15;;;13.85;;
4601;SDS011;2313;48.552;9.370;2023-02-28T17:29:14;11.77;;;9.55;;
4601;SDS011;2313;48.552;9.370;2023-02-28T17:31:45;17.42;;;11.32;;
4601;SDS011;2313;48.552;9.370;2023-02-28T17:34:10;20.20;;;13.07;;
4601;SDS011;2313;48.552;9.370;2023-02-28T17:36:42;21.88;;;13.00;;
4601;SDS011;2313;48.552;9.370;2023-02-28T17:39:12;18.15;;;10.45;;
4601;SDS011;2313;48.552;9.370;2023-02-28T17:41:40;17.73;;;11.50;;
4601;SDS011;2313;48.552;9.370;2023-02-28T17:44:07;19.50;;;12.43;;
4601;SDS011;2313;48.552;9.370;2023-02-28T17:46:33;21.23;;;13.32;;
4601;SDS011;2313;48.552;9.370;2023-02-28T17:48:59;20.63;;;12.80;;
4601;SDS011;2313;48.552;9.370;2023-02-28T17:51:25;16.70;;;12.20;;
4601;SDS011;2313;48.552;9.370;2023-02-28T17:53:51;22.90;;;13.67;;
4601;SDS011;2313;48.552;9.370;2023-02-28T17:56:20;28.00;;;16.05;;
4601;SDS011;2313;48.552;9.370;2023-02-28T17:58:48;21.90;;;14.50;;
4601;SDS011;2313;48.552;9.370;2023-02-28T18:01:14;20.48;;;13.13;;
4601;SDS011;2313;48.552;9.370;2023-02-28T18:03:40;28.23;;;15.37;;
4601;SDS011;2313;48.552;9.370;2023-02-28T18:06:06;35.22;;;19.13;;
4601;SDS011;2313;48.552;9.370;2023-02-28T18:08:35;31.90;;;17.88;;
4601;SDS011;2313;48.552;9.370;2023-02-28T18:11:01;42.27;;;22.90;;
4601;SDS011;2313;48.552;9.370;2023-02-28T18:13:27;31.73;;;16.60;;
4601;SDS011;2313;48.552;9.370;2023-02-28T18:15:53;21.97;;;14.80;;
4601;SDS011;2313;48.552;9.370;2023-02-28T18:18:19;21.10;;;13.75;;